createdAt,value
2019-04-04T00:00:12.166Z,2.90
2019-04-04T00:02:40.705Z,3.20
2019-04-04T00:05:09.443Z,3.40
2019-04-04T00:07:38.003Z,3.47
2019-04-04T00:10:07.734Z,2.90
2019-04-04T00:12:36.950Z,2.90
2019-04-04T00:15:06.879Z,3.10
2019-04-04T00:17:35.616Z,3.00
2019-04-04T00:20:06.313Z,3.10
2019-04-04T00:22:35.482Z,3.40
2019-04-04T00:25:05.529Z,3.40
2019-04-04T00:27:34.107Z,3.40
2019-04-04T00:30:02.696Z,3.20
2019-04-04T00:32:31.262Z,3.47
2019-04-04T00:35:00.491Z,3.00
2019-04-04T00:37:29.021Z,3.50
2019-04-04T00:39:57.582Z,3.40
2019-04-04T00:42:26.248Z,3.80
2019-04-04T00:44:55.725Z,3.40
2019-04-04T00:47:24.917Z,3.63
2019-04-04T00:49:53.556Z,3.70
2019-04-04T00:52:22.119Z,3.80
2019-04-04T00:54:50.777Z,3.83
2019-04-04T00:57:19.544Z,3.67
2019-04-04T00:59:48.085Z,3.50
2019-04-04T01:02:20.339Z,3.60
2019-04-04T01:04:48.903Z,4.00
2019-04-04T01:07:17.504Z,3.70
2019-04-04T01:09:47.903Z,3.73
2019-04-04T01:12:17.077Z,4.10
2019-04-04T01:14:45.679Z,4.30
2019-04-04T01:17:14.315Z,3.87
2019-04-04T01:19:42.965Z,4.33
2019-04-04T01:22:11.533Z,4.23
2019-04-04T01:24:40.132Z,4.63
2019-04-04T01:27:08.711Z,4.30
2019-04-04T01:29:37.279Z,4.93
2019-04-04T01:32:06.351Z,5.07
2019-04-04T01:34:34.920Z,4.67
2019-04-04T01:37:03.593Z,5.23
2019-04-04T01:39:32.195Z,4.83
2019-04-04T01:42:00.754Z,4.60
2019-04-04T01:44:29.356Z,5.03
2019-04-04T01:47:00.895Z,4.70
2019-04-04T01:49:29.483Z,5.30
2019-04-04T01:51:58.046Z,5.90
2019-04-04T01:54:26.596Z,5.17
2019-04-04T01:56:55.212Z,5.73
2019-04-04T01:59:23.766Z,4.60
2019-04-04T02:01:52.353Z,4.97
2019-04-04T02:04:21.071Z,5.30
2019-04-04T02:06:49.666Z,5.43
2019-04-04T02:09:18.250Z,5.40
2019-04-04T02:11:46.812Z,5.47
2019-04-04T02:14:15.422Z,5.27
2019-04-04T02:16:45.597Z,5.70
2019-04-04T02:19:14.266Z,5.40
2019-04-04T02:21:42.869Z,5.80
2019-04-04T02:24:11.422Z,5.83
2019-04-04T02:26:40.038Z,5.90
2019-04-04T02:29:11.715Z,5.67
2019-04-04T02:31:42.856Z,6.50
2019-04-04T02:34:11.448Z,5.17
2019-04-04T02:36:40.097Z,5.50
2019-04-04T02:39:11.760Z,6.40
2019-04-04T02:41:41.935Z,4.90
2019-04-04T02:44:10.615Z,5.30
2019-04-04T02:46:45.513Z,4.50
2019-04-04T02:49:12.534Z,4.50
2019-04-04T02:51:41.549Z,4.00
2019-04-04T02:54:10.232Z,4.03
2019-04-04T02:56:38.804Z,4.80
2019-04-04T02:59:07.485Z,5.47
2019-04-04T03:01:36.185Z,4.80
2019-04-04T03:04:04.789Z,5.47
2019-04-04T03:06:43.710Z,6.07
2019-04-04T03:09:13.910Z,5.17
2019-04-04T03:11:44.018Z,4.70
2019-04-04T03:14:12.985Z,6.43
2019-04-04T03:16:41.656Z,6.03
2019-04-04T03:19:11.324Z,5.47
2019-04-04T03:21:40.138Z,5.73
2019-04-04T03:24:09.144Z,4.80
2019-04-04T03:26:39.673Z,5.73
2019-04-04T03:29:10.434Z,5.50
2019-04-04T03:31:39.230Z,5.20
2019-04-04T03:34:11.074Z,4.80
2019-04-04T03:36:39.023Z,5.43
2019-04-04T03:39:07.583Z,6.80
2019-04-04T03:41:36.423Z,5.33
2019-04-04T03:44:05.160Z,4.80
2019-04-04T03:46:38.751Z,5.00
2019-04-04T03:49:06.377Z,4.73
2019-04-04T03:51:38.071Z,4.90
2019-04-04T03:54:06.956Z,4.77
2019-04-04T03:56:39.185Z,5.53
2019-04-04T03:59:05.782Z,5.43
2019-04-04T04:01:34.448Z,5.10
2019-04-04T04:04:03.063Z,5.17
2019-04-04T04:06:31.671Z,5.03
2019-04-04T04:09:00.235Z,5.13
2019-04-04T04:11:28.894Z,6.00
2019-04-04T04:13:57.746Z,5.90
2019-04-04T04:16:26.304Z,6.00
2019-04-04T04:18:55.461Z,5.60
2019-04-04T04:21:25.718Z,6.10
2019-04-04T04:23:57.021Z,5.43
2019-04-04T04:26:27.358Z,5.80
2019-04-04T04:28:55.928Z,6.10
2019-04-04T04:31:24.563Z,5.90
2019-04-04T04:33:53.080Z,6.00
2019-04-04T04:36:21.772Z,4.97
2019-04-04T04:38:50.370Z,5.40
2019-04-04T04:41:22.016Z,5.60
2019-04-04T04:43:51.478Z,5.40
2019-04-04T04:46:20.110Z,5.17
2019-04-04T04:48:55.502Z,5.40
2019-04-04T04:51:30.321Z,5.80
2019-04-04T04:54:01.048Z,5.27
2019-04-04T04:56:31.289Z,5.03
2019-04-04T04:58:59.827Z,5.23
2019-04-04T05:01:28.843Z,5.60
2019-04-04T05:04:03.475Z,5.77
2019-04-04T05:06:35.244Z,5.57
2019-04-04T05:09:02.300Z,5.27
2019-04-04T05:11:30.891Z,5.10
2019-04-04T05:13:59.483Z,4.87
2019-04-04T05:16:29.599Z,5.50
2019-04-04T05:18:59.749Z,5.60
2019-04-04T05:21:28.909Z,5.53
2019-04-04T05:23:57.588Z,5.90
2019-04-04T05:26:26.168Z,5.40
2019-04-04T05:28:57.557Z,5.73
2019-04-04T05:31:26.180Z,5.90
2019-04-04T05:33:54.722Z,5.77
2019-04-04T05:36:26.595Z,5.90
2019-04-04T05:38:55.178Z,6.27
2019-04-04T05:41:26.963Z,6.40
2019-04-04T05:43:54.190Z,5.60
2019-04-04T05:46:23.089Z,5.63
2019-04-04T05:48:51.660Z,6.60
2019-04-04T05:51:20.908Z,6.90
2019-04-04T05:53:49.504Z,5.93
2019-04-04T05:56:20.063Z,7.13
2019-04-04T05:58:54.349Z,7.37
2019-04-04T06:01:28.262Z,6.80
2019-04-04T06:03:56.825Z,6.87
2019-04-04T06:06:25.481Z,7.00
2019-04-04T06:08:54.125Z,6.53
2019-04-04T06:11:22.910Z,6.20
2019-04-04T06:13:51.486Z,6.97
2019-04-04T06:16:20.088Z,7.33
2019-04-04T06:18:49.273Z,6.27
2019-04-04T06:21:18.859Z,6.67
2019-04-04T06:23:47.730Z,6.70
2019-04-04T06:26:16.298Z,6.70
2019-04-04T06:28:50.622Z,7.20
2019-04-04T06:31:46.140Z,7.10
2019-04-04T06:34:14.764Z,6.77
2019-04-04T06:36:47.046Z,7.63
2019-04-04T06:39:19.155Z,6.43
2019-04-04T06:41:55.590Z,6.80
2019-04-04T06:44:24.396Z,6.83
2019-04-04T06:46:58.115Z,7.70
2019-04-04T06:49:28.860Z,7.97
2019-04-04T06:51:56.915Z,8.07
2019-04-04T06:54:26.274Z,8.30
2019-04-04T06:56:55.003Z,9.10
2019-04-04T06:59:23.565Z,8.67
2019-04-04T07:01:52.629Z,8.67
2019-04-04T07:04:24.530Z,7.50
2019-04-04T07:06:54.641Z,8.17
2019-04-04T07:09:24.784Z,9.80
2019-04-04T07:11:54.889Z,9.00
2019-04-04T07:14:25.002Z,8.50
2019-04-04T07:16:55.216Z,7.57
2019-04-04T07:19:23.801Z,7.47
2019-04-04T07:21:52.457Z,8.27
2019-04-04T07:24:21.078Z,8.57
2019-04-04T07:26:49.583Z,7.80
2019-04-04T07:29:18.159Z,9.50
2019-04-04T07:31:52.716Z,6.87
2019-04-04T07:34:21.401Z,7.20
2019-04-04T07:36:51.206Z,7.80
2019-04-04T07:39:20.351Z,9.17
2019-04-04T07:41:48.933Z,8.20
2019-04-04T07:44:17.587Z,9.00
2019-04-04T07:46:46.187Z,9.53
2019-04-04T07:49:14.831Z,8.80
2019-04-04T07:51:43.409Z,8.97
2019-04-04T07:54:12.025Z,8.40
2019-04-04T07:56:40.663Z,9.50
2019-04-04T07:59:09.259Z,9.23
2019-04-04T08:01:50.273Z,8.30
2019-04-04T08:04:08.735Z,8.63
2019-04-04T08:06:37.774Z,8.87
2019-04-04T08:09:07.729Z,8.80
2019-04-04T08:11:36.297Z,9.07
2019-04-04T08:14:06.494Z,8.17
2019-04-04T08:16:46.828Z,10.17
2019-04-04T08:19:20.397Z,9.47
2019-04-04T08:21:52.345Z,10.87
2019-04-04T08:24:20.914Z,12.77
2019-04-04T08:26:49.937Z,11.00
2019-04-04T08:29:18.515Z,12.20
2019-04-04T08:31:51.169Z,11.73
2019-04-04T08:34:19.744Z,12.10
2019-04-04T08:36:48.308Z,12.03
2019-04-04T08:39:19.983Z,11.43
2019-04-04T08:41:52.513Z,11.67
2019-04-04T08:44:21.304Z,11.67
2019-04-04T08:46:49.944Z,11.87
2019-04-04T08:49:18.593Z,11.93
2019-04-04T08:51:47.203Z,12.60
2019-04-04T08:54:15.798Z,11.70
2019-04-04T08:56:44.403Z,11.33
2019-04-04T08:59:12.964Z,9.53
2019-04-04T09:01:41.611Z,10.60
2019-04-04T09:04:10.228Z,11.97
2019-04-04T09:06:40.410Z,11.73
2019-04-04T09:09:11.814Z,11.67
2019-04-04T09:11:40.406Z,12.17
2019-04-04T09:14:09.062Z,11.80
2019-04-04T09:16:37.756Z,12.80
2019-04-04T09:19:09.305Z,12.10
2019-04-04T09:21:37.999Z,12.50
2019-04-04T09:24:09.819Z,11.83
2019-04-04T09:26:38.437Z,11.53
2019-04-04T09:29:07.077Z,11.80
2019-04-04T09:31:35.635Z,11.37
2019-04-04T09:34:07.123Z,12.03
2019-04-04T09:36:35.727Z,12.93
2019-04-04T09:39:06.391Z,12.50
2019-04-04T09:41:35.137Z,12.93
2019-04-04T09:44:05.989Z,12.90
2019-04-04T09:46:34.150Z,12.20
2019-04-04T09:49:02.869Z,12.30
2019-04-04T09:51:31.455Z,11.80
2019-04-04T09:54:01.655Z,12.20
2019-04-04T09:56:30.229Z,12.53
2019-04-04T09:58:58.910Z,12.50
2019-04-04T10:01:27.823Z,13.00
2019-04-04T10:03:56.392Z,13.37
2019-04-04T10:06:25.070Z,12.83
2019-04-04T10:08:53.665Z,12.93
2019-04-04T10:11:22.341Z,13.60
2019-04-04T10:13:54.240Z,12.43
2019-04-04T10:16:22.797Z,12.97
2019-04-04T10:18:51.410Z,13.00
2019-04-04T10:21:19.983Z,12.50
2019-04-04T10:23:48.587Z,11.93
2019-04-04T10:26:17.168Z,13.03
2019-04-04T10:28:45.759Z,12.67
2019-04-04T10:31:14.367Z,12.47
2019-04-04T10:33:43.008Z,12.87
2019-04-04T10:36:11.597Z,13.20
2019-04-04T10:38:40.185Z,13.83
2019-04-04T10:41:08.766Z,12.40
2019-04-04T10:43:37.360Z,12.87
2019-04-04T10:46:06.069Z,12.30
2019-04-04T10:48:37.750Z,13.33
2019-04-04T10:51:09.010Z,12.57
2019-04-04T10:53:37.653Z,12.10
2019-04-04T10:56:06.396Z,12.63
2019-04-04T10:58:35.008Z,11.00
2019-04-04T11:01:03.728Z,12.27
2019-04-04T11:03:32.288Z,13.03
2019-04-04T11:06:00.870Z,13.23
2019-04-04T11:08:29.596Z,12.63
2019-04-04T11:10:59.013Z,13.53
2019-04-04T11:13:33.371Z,12.40
2019-04-04T11:15:58.162Z,11.77
2019-04-04T11:18:26.722Z,12.80
2019-04-04T11:20:55.410Z,12.50
2019-04-04T11:23:23.977Z,13.90
2019-04-04T11:25:58.317Z,12.73
2019-04-04T11:28:26.897Z,12.40
2019-04-04T11:30:58.211Z,12.67
2019-04-04T11:33:27.123Z,13.03
2019-04-04T11:35:55.697Z,13.43
2019-04-04T11:38:24.296Z,13.20
2019-04-04T11:40:52.880Z,13.23
2019-04-04T11:43:21.463Z,13.13
2019-04-04T11:45:53.043Z,13.53
2019-04-04T11:48:21.693Z,13.77
2019-04-04T11:50:50.398Z,14.07
2019-04-04T11:53:18.976Z,14.13
2019-04-04T11:55:47.551Z,13.83
2019-04-04T11:58:16.133Z,13.90
2019-04-04T12:00:46.422Z,13.80
2019-04-04T12:03:15.055Z,13.27
2019-04-04T12:05:43.625Z,13.50
2019-04-04T12:08:13.067Z,13.13
2019-04-04T12:10:41.950Z,13.30
2019-04-04T12:13:10.533Z,14.10
2019-04-04T12:15:39.203Z,13.00
2019-04-04T12:18:07.714Z,13.23
2019-04-04T12:20:37.826Z,14.03
2019-04-04T12:23:06.433Z,13.10
2019-04-04T12:25:35.005Z,13.73
2019-04-04T12:28:03.675Z,13.07
2019-04-04T12:30:32.341Z,13.60
2019-04-04T12:33:00.902Z,13.13
2019-04-04T12:35:29.516Z,14.00
2019-04-04T12:37:58.220Z,14.30
2019-04-04T12:40:28.488Z,13.93
2019-04-04T12:42:57.056Z,13.57
2019-04-04T12:45:25.632Z,13.43
2019-04-04T12:47:54.321Z,13.40
2019-04-04T12:50:22.886Z,14.07
2019-04-04T12:52:51.559Z,14.30
2019-04-04T12:55:20.146Z,13.40
2019-04-04T12:57:48.720Z,13.57
2019-04-04T13:00:17.868Z,13.83
2019-04-04T13:02:48.082Z,13.60
2019-04-04T13:05:16.784Z,13.30
2019-04-04T13:07:52.434Z,13.97
2019-04-04T13:10:32.986Z,14.17
2019-04-04T13:13:00.823Z,14.13
2019-04-04T13:15:29.743Z,13.67
2019-04-04T13:17:58.323Z,13.00
2019-04-04T13:20:26.926Z,13.13
2019-04-04T13:22:55.594Z,12.93
2019-04-04T13:25:25.239Z,12.47
2019-04-04T13:27:53.822Z,12.80
2019-04-04T13:30:42.206Z,12.77
2019-04-04T13:33:11.013Z,12.20
2019-04-04T13:35:39.663Z,10.80
2019-04-04T13:38:08.260Z,10.90
2019-04-04T13:40:45.224Z,11.33
2019-04-04T13:43:07.047Z,10.73
2019-04-04T13:45:43.171Z,11.40
2019-04-04T13:48:19.720Z,9.47
2019-04-04T13:50:51.769Z,9.40
2019-04-04T13:53:20.958Z,10.33
2019-04-04T13:55:49.611Z,9.97
2019-04-04T13:58:21.777Z,9.73
2019-04-04T14:00:49.444Z,9.83
2019-04-04T14:03:25.463Z,9.47
2019-04-04T14:05:54.110Z,8.70
2019-04-04T14:08:22.693Z,9.00
2019-04-04T14:10:57.978Z,8.83
2019-04-04T14:13:21.500Z,9.17
2019-04-04T14:15:50.091Z,8.43
2019-04-04T14:18:38.258Z,9.03
2019-04-04T14:21:03.529Z,8.67
2019-04-04T14:23:38.577Z,8.27
2019-04-04T14:26:08.260Z,8.33
2019-04-04T14:28:36.856Z,8.37
2019-04-04T14:31:05.460Z,7.83
2019-04-04T14:33:34.039Z,7.93
2019-04-04T14:36:06.485Z,8.27
2019-04-04T14:38:36.585Z,8.33
2019-04-04T14:41:14.454Z,8.47
2019-04-04T14:43:48.293Z,7.73
2019-04-04T14:46:20.810Z,8.10
2019-04-04T14:48:49.633Z,6.97
2019-04-04T14:51:18.268Z,7.37
2019-04-04T14:53:47.003Z,7.43
2019-04-04T14:56:15.571Z,7.53
2019-04-04T14:58:45.680Z,7.60
2019-04-04T15:01:15.847Z,7.90
2019-04-04T15:03:44.413Z,7.80
2019-04-04T15:06:12.994Z,7.53
2019-04-04T15:08:41.580Z,7.37
2019-04-04T15:11:23.128Z,6.63
2019-04-04T15:13:40.406Z,7.03
2019-04-04T15:16:15.845Z,6.70
2019-04-04T15:18:44.910Z,7.17
2019-04-04T15:21:15.057Z,7.33
2019-04-04T15:23:43.617Z,8.00
2019-04-04T15:26:12.201Z,7.53
2019-04-04T15:28:42.305Z,7.67
2019-04-04T15:31:10.958Z,7.53
2019-04-04T15:33:39.578Z,8.30
2019-04-04T15:36:08.163Z,7.63
2019-04-04T15:38:39.086Z,8.30
2019-04-04T15:41:07.715Z,8.03
2019-04-04T15:43:36.333Z,8.17
2019-04-04T15:46:17.792Z,7.67
2019-04-04T15:48:46.425Z,9.13
2019-04-04T15:51:18.119Z,8.63
2019-04-04T15:53:48.227Z,8.80
2019-04-04T15:56:16.801Z,9.47
2019-04-04T15:58:46.632Z,9.43
2019-04-04T16:01:18.798Z,9.50
2019-04-04T16:03:47.469Z,9.13
2019-04-04T16:06:16.492Z,9.47
2019-04-04T16:08:45.127Z,9.67
2019-04-04T16:11:13.744Z,9.40
2019-04-04T16:13:42.459Z,9.23
2019-04-04T16:16:11.096Z,9.30
2019-04-04T16:18:39.765Z,9.07
2019-04-04T16:21:08.416Z,8.57
2019-04-04T16:23:36.997Z,8.80
2019-04-04T16:26:05.721Z,8.83
2019-04-04T16:28:35.819Z,8.90
2019-04-04T16:31:05.382Z,8.27
2019-04-04T16:33:33.906Z,8.33
2019-04-04T16:36:05.318Z,8.23
2019-04-04T16:38:32.790Z,8.77
2019-04-04T16:41:01.504Z,9.17
2019-04-04T16:43:30.101Z,7.77
2019-04-04T16:45:58.869Z,7.10
2019-04-04T16:48:27.556Z,7.30
2019-04-04T16:50:56.180Z,5.93
2019-04-04T16:53:31.016Z,5.43
2019-04-04T16:56:01.440Z,5.77
2019-04-04T16:58:37.115Z,4.97
2019-04-04T17:01:17.117Z,5.57
2019-04-04T17:04:01.631Z,4.83
2019-04-04T17:06:26.620Z,4.90
2019-04-04T17:09:11.704Z,4.20
2019-04-04T17:11:43.050Z,4.37
2019-04-04T17:14:11.713Z,4.50
2019-04-04T17:16:40.290Z,4.70
2019-04-04T17:19:13.547Z,4.67
2019-04-04T17:21:42.093Z,4.93
2019-04-04T17:24:10.735Z,4.60
2019-04-04T17:26:39.396Z,4.60
2019-04-04T17:29:08.075Z,4.50
2019-04-04T17:31:36.656Z,4.20
2019-04-04T17:34:05.722Z,4.27
2019-04-04T17:36:34.470Z,4.43
2019-04-04T17:39:05.129Z,4.87
2019-04-04T17:41:35.308Z,4.80
2019-04-04T17:44:04.545Z,4.40
2019-04-04T17:46:33.290Z,4.20
2019-04-04T17:49:02.177Z,4.23
2019-04-04T17:51:33.625Z,3.60
2019-04-04T17:54:06.437Z,4.00
2019-04-04T17:56:35.136Z,4.10
2019-04-04T17:59:03.784Z,3.50
2019-04-04T18:01:34.355Z,3.70
2019-04-04T18:04:04.271Z,3.40
2019-04-04T18:06:36.997Z,3.00
2019-04-04T18:09:08.084Z,3.47
2019-04-04T18:11:36.735Z,3.43
2019-04-04T18:14:05.822Z,3.43
2019-04-04T18:16:34.476Z,3.37
2019-04-04T18:19:03.149Z,3.50
2019-04-04T18:21:33.273Z,3.30
2019-04-04T18:24:06.210Z,3.10
2019-04-04T18:26:38.949Z,3.50
2019-04-04T18:29:07.657Z,3.70
2019-04-04T18:31:36.286Z,3.33
2019-04-04T18:34:07.905Z,3.60
2019-04-04T18:36:35.967Z,4.10
2019-04-04T18:39:07.271Z,4.00
2019-04-04T18:41:35.841Z,4.23
2019-04-04T18:44:06.015Z,4.40
2019-04-04T18:46:37.662Z,5.00
2019-04-04T18:49:09.649Z,4.57
2019-04-04T18:51:38.255Z,5.63
2019-04-04T18:54:06.898Z,5.50
2019-04-04T18:56:44.442Z,5.77
2019-04-04T18:59:14.163Z,6.20
2019-04-04T19:01:42.749Z,7.03
2019-04-04T19:04:11.436Z,7.47
2019-04-04T19:06:40.103Z,7.27
2019-04-04T19:09:15.141Z,7.33
2019-04-04T19:11:48.082Z,7.07
2019-04-04T19:14:19.741Z,8.17
2019-04-04T19:16:48.380Z,7.40
2019-04-04T19:19:17.355Z,7.70
2019-04-04T19:21:48.933Z,8.13
2019-04-04T19:24:19.330Z,7.80
2019-04-04T19:26:53.540Z,7.90
2019-04-04T19:29:22.098Z,9.03
2019-04-04T19:31:52.288Z,8.50
2019-04-04T19:34:20.857Z,8.63
2019-04-04T19:36:49.526Z,9.53
2019-04-04T19:39:18.426Z,9.00
2019-04-04T19:41:48.535Z,9.37
2019-04-04T19:44:17.115Z,10.27
2019-04-04T19:46:50.151Z,10.63
2019-04-04T19:49:18.811Z,10.27
2019-04-04T19:51:47.392Z,9.80
2019-04-04T19:54:19.959Z,9.83
2019-04-04T19:56:48.550Z,9.37
2019-04-04T19:59:17.121Z,10.03
2019-04-04T20:01:45.857Z,9.57
2019-04-04T20:04:14.508Z,10.80
2019-04-04T20:06:43.172Z,10.70
2019-04-04T20:09:11.786Z,10.97
2019-04-04T20:11:40.369Z,10.57
2019-04-04T20:14:08.994Z,10.10
2019-04-04T20:16:37.614Z,10.27
2019-04-04T20:19:06.267Z,10.87
2019-04-04T20:21:35.252Z,9.87
2019-04-04T20:24:04.008Z,10.40
2019-04-04T20:26:32.629Z,9.87
2019-04-04T20:29:03.746Z,10.23
2019-04-04T20:31:35.342Z,10.20
2019-04-04T20:34:05.994Z,11.63
2019-04-04T20:36:34.331Z,10.10
2019-04-04T20:39:03.024Z,10.53
2019-04-04T20:41:34.366Z,10.60
2019-04-04T20:44:05.713Z,9.90
2019-04-04T20:46:34.300Z,10.57
2019-04-04T20:49:02.983Z,10.20
2019-04-04T20:51:31.702Z,10.00
2019-04-04T20:54:01.835Z,9.50
2019-04-04T20:56:31.936Z,10.23
2019-04-04T20:59:02.088Z,9.80
2019-04-04T21:01:32.220Z,10.17
2019-04-04T21:04:00.792Z,10.10
2019-04-04T21:06:31.738Z,10.53
2019-04-04T21:09:01.926Z,10.00
2019-04-04T21:11:30.559Z,9.73
2019-04-04T21:13:59.163Z,10.23
2019-04-04T21:16:27.776Z,9.47
2019-04-04T21:18:56.382Z,9.63
2019-04-04T21:21:24.960Z,9.37
2019-04-04T21:23:53.524Z,9.10
2019-04-04T21:26:24.872Z,9.20
2019-04-04T21:28:53.463Z,9.10
2019-04-04T21:31:23.539Z,9.07
2019-04-04T21:33:52.410Z,8.60
2019-04-04T21:36:22.456Z,8.43
2019-04-04T21:38:54.001Z,8.30
2019-04-04T21:41:24.136Z,8.33
2019-04-04T21:43:52.721Z,8.40
2019-04-04T21:46:21.300Z,7.70
2019-04-04T21:48:49.864Z,8.70
2019-04-04T21:51:21.451Z,7.83
2019-04-04T21:53:50.148Z,8.33
2019-04-04T21:56:19.112Z,8.00
2019-04-04T21:58:47.806Z,8.13
2019-04-04T22:01:16.677Z,8.20
2019-04-04T22:03:45.383Z,8.13
2019-04-04T22:06:16.632Z,7.80
2019-04-04T22:08:48.207Z,7.67
2019-04-04T22:11:16.844Z,7.87
2019-04-04T22:13:45.389Z,7.77
2019-04-04T22:16:15.600Z,7.93
2019-04-04T22:18:44.161Z,7.07
2019-04-04T22:21:12.802Z,8.30
2019-04-04T22:23:41.451Z,7.83
2019-04-04T22:26:10.011Z,8.17
2019-04-04T22:28:39.521Z,7.70
2019-04-04T22:31:08.217Z,7.97
2019-04-04T22:33:36.852Z,8.23
2019-04-04T22:36:05.526Z,7.30
2019-04-04T22:38:34.079Z,8.17
2019-04-04T22:41:02.694Z,8.97
2019-04-04T22:43:31.269Z,7.07
2019-04-04T22:45:59.823Z,7.50
2019-04-04T22:48:28.492Z,8.20
2019-04-04T22:50:57.128Z,7.70
2019-04-04T22:53:27.264Z,8.83
2019-04-04T22:55:57.380Z,8.30
2019-04-04T22:58:28.853Z,8.77
2019-04-04T23:00:57.660Z,8.57
2019-04-04T23:03:28.134Z,8.83
2019-04-04T23:05:56.727Z,9.30
2019-04-04T23:08:25.299Z,8.67
2019-04-04T23:10:54.037Z,9.27
2019-04-04T23:13:37.177Z,8.67
2019-04-04T23:16:05.758Z,8.53
2019-04-04T23:18:36.696Z,9.40
2019-04-04T23:21:05.397Z,9.87
2019-04-04T23:23:34.122Z,8.27
2019-04-04T23:26:02.768Z,8.10
2019-04-04T23:28:31.414Z,8.77
2019-04-04T23:31:00.008Z,8.87
2019-04-04T23:33:28.559Z,9.07
2019-04-04T23:35:57.195Z,9.63
2019-04-04T23:38:25.855Z,8.37
2019-04-04T23:40:54.439Z,9.50
2019-04-04T23:43:23.953Z,8.97
2019-04-04T23:45:52.517Z,9.20
2019-04-04T23:48:21.087Z,10.20
2019-04-04T23:50:49.691Z,8.20
2019-04-04T23:53:22.706Z,9.03
2019-04-04T23:55:51.446Z,9.07
2019-04-04T23:58:20.008Z,9.00
